Terminal Aerodrome Forecast
Issued by NWS

Current Version | Previous Version | Text Only | Print | Product List | Glossary On
Versions: 1 2 3 4 5 6 7 8 9 10 11 12
000
FTUS45 KLKN 290520
TAFELY
TAF
KELY 290520Z 2906/3006 19008KT P6SM VCSH BKN060 OVC200
     FM291900 19009KT P6SM -SHRA VCTS BKN060CB BKN200
     FM300200 18008KT P6SM VCSH BKN080 BKN200=

USA.gov is the U.S. government's official web portal to all federal, state and local government web resources and services.